createdAt,value
2023-03-23T16:00:32.555Z,6.00
2023-03-23T16:05:39.917Z,9.20
2023-03-23T16:10:48.510Z,5.70
2023-03-23T16:15:55.777Z,6.50
2023-03-23T16:21:03.742Z,3.90
2023-03-23T16:26:10.614Z,4.70
2023-03-23T16:31:17.760Z,4.50
2023-03-23T16:36:24.816Z,4.90
2023-03-23T16:41:32.111Z,6.50
2023-03-23T16:46:39.635Z,5.40
2023-03-23T16:51:46.707Z,6.00
2023-03-23T16:56:53.698Z,5.10
2023-03-23T17:02:03.880Z,6.30
2023-03-23T17:07:11.120Z,12.20
2023-03-23T17:12:18.328Z,7.30
2023-03-23T17:17:25.725Z,8.90
2023-03-23T17:22:33.584Z,11.80
2023-03-23T17:27:41.205Z,17.40
2023-03-23T17:32:48.895Z,8.50
2023-03-23T17:37:55.819Z,10.60
2023-03-23T17:43:02.926Z,8.60
2023-03-23T17:48:12.047Z,9.20
2023-03-23T17:53:19.524Z,15.40
2023-03-23T17:58:27.421Z,13.30
2023-03-23T18:03:35.065Z,8.10
2023-03-23T18:08:42.662Z,7.30
2023-03-23T18:13:49.639Z,8.40
2023-03-23T18:18:56.958Z,6.50
2023-03-23T18:24:04.007Z,10.70
2023-03-23T18:29:10.876Z,9.60
2023-03-23T18:34:18.154Z,6.10
2023-03-23T18:39:25.138Z,9.20
2023-03-23T18:44:32.009Z,7.20
2023-03-23T18:49:39.329Z,7.90
2023-03-23T18:54:46.467Z,11.60
2023-03-23T18:59:53.466Z,6.30
2023-03-23T19:05:00.621Z,11.20
2023-03-23T19:10:09.517Z,13.60
2023-03-23T19:15:17.135Z,13.40
2023-03-23T19:20:58.372Z,17.80
2023-03-23T19:25:53.707Z,18.10
2023-03-23T19:31:01.004Z,13.10
2023-03-23T19:36:12.894Z,12.90
2023-03-23T19:41:20.505Z,11.80
2023-03-23T19:46:30.872Z,13.90
2023-03-23T19:56:44.287Z,10.70
2023-03-23T20:01:51.794Z,14.30
2023-03-23T20:06:59.082Z,11.80
2023-03-23T20:12:06.805Z,14.40
2023-03-23T20:17:14.589Z,13.00
2023-03-23T20:22:21.693Z,12.10
2023-03-23T20:27:29.099Z,9.30
2023-03-23T20:32:37.437Z,9.50
2023-03-23T20:37:44.620Z,10.40
2023-03-23T20:42:54.538Z,10.00
2023-03-23T20:48:02.244Z,12.70
2023-03-23T20:53:09.218Z,12.50
2023-03-23T20:58:17.023Z,12.70
2023-03-23T21:03:23.888Z,12.70
2023-03-23T21:08:31.037Z,9.60
2023-03-23T21:13:38.042Z,13.10
2023-03-23T21:18:45.105Z,10.20
2023-03-23T21:23:53.184Z,12.60
2023-03-23T21:29:01.046Z,12.10
2023-03-23T21:34:08.810Z,8.00
2023-03-23T21:39:15.670Z,14.80
2023-03-23T21:44:22.984Z,10.80
2023-03-23T21:49:30.041Z,9.60
2023-03-23T21:55:32.030Z,13.90
2023-03-23T22:00:40.030Z,12.10
2023-03-23T22:05:47.057Z,10.00
2023-03-23T22:11:01.442Z,10.60
2023-03-23T22:16:14.393Z,14.10
2023-03-23T22:21:25.457Z,12.10
2023-03-23T22:26:32.826Z,14.50
2023-03-23T22:31:41.008Z,15.40
2023-03-23T22:36:47.812Z,22.20
2023-03-23T22:41:54.696Z,22.80
2023-03-23T22:47:01.620Z,38.90
2023-03-23T22:52:08.584Z,40.30
2023-03-23T22:57:15.996Z,28.60
2023-03-23T23:02:22.845Z,19.90
2023-03-23T23:07:29.809Z,23.60
2023-03-23T23:12:37.067Z,26.60
2023-03-23T23:17:44.173Z,27.60
2023-03-23T23:22:52.467Z,26.50
2023-03-23T23:28:01.132Z,30.00
2023-03-23T23:33:09.351Z,20.60
2023-03-23T23:38:17.417Z,15.90
2023-03-23T23:43:24.273Z,12.90
2023-03-23T23:48:31.245Z,13.80
2023-03-23T23:53:38.159Z,15.00
2023-03-23T23:58:44.995Z,18.40
